Time;durP1;ratioP1;P1;durP2;ratioP2;P2;SDS_P1;SDS_P2;PMS_P1;PMS_P2;Temp;Humidity;BMP_temperature;BMP_pressure;BME280_temperature;BME280_humidity;BME280_pressure;Samples;Min_cycle;Max_cycle;Signal;HPM_P1;HPM_P2
2023/03/03 00:01:55;;;;;;;69.78;28.52;;;;;;;0.75;100.00;100631.16;13323981;26;20046;-81
2023/03/03 00:11:56;;;;;;;65.60;28.33;;;;;;;0.59;100.00;100629.88;20747853;28;20046;-81
2023/03/03 00:21:57;;;;;;;65.97;26.60;;;;;;;0.53;100.00;100637.44;20667592;23;20050;-69
2023/03/03 00:32:00;;;;;;;59.17;26.30;;;;;;;0.47;100.00;100647.53;20731910;23;20046;-68
2023/03/03 00:42:04;;;;;;;68.35;29.83;;;;;;;0.30;100.00;100644.47;20768854;28;20049;-68
2023/03/03 00:52:06;;;;;;;65.85;26.50;;;;;;;0.04;100.00;100638.53;20771079;28;20504;-67
2023/03/03 01:02:07;;;;;;;60.70;27.30;;;;;;;-0.08;100.00;100653.63;20767575;28;20050;-66
2023/03/03 01:12:08;;;;;;;60.25;25.63;;;;;;;-0.15;100.00;100646.50;20770606;28;20053;-67
2023/03/03 01:22:09;;;;;;;63.45;26.73;;;;;;;-0.26;100.00;100639.34;20765761;28;20056;-67
2023/03/03 01:32:11;;;;;;;64.60;26.65;;;;;;;-0.33;100.00;100642.56;20763442;28;20444;-66
2023/03/03 01:42:12;;;;;;;63.47;27.27;;;;;;;-0.38;100.00;100630.38;20771755;28;20052;-67
2023/03/03 01:52:13;;;;;;;66.80;28.23;;;;;;;-0.48;100.00;100628.31;20781601;28;20464;-67
2023/03/03 02:02:15;;;;;;;67.88;28.13;;;;;;;-0.58;100.00;100629.69;20781227;28;20058;-66
2023/03/03 02:12:16;;;;;;;69.70;27.77;;;;;;;-0.73;100.00;100635.22;20780253;28;20061;-66
2023/03/03 02:22:17;;;;;;;71.55;29.13;;;;;;;-0.76;100.00;100634.25;20784307;28;20049;-66
2023/03/03 02:32:18;;;;;;;74.53;30.05;;;;;;;-0.93;100.00;100631.97;20778664;28;20057;-65
2023/03/03 02:42:20;;;;;;;72.25;29.85;;;;;;;-1.00;100.00;100632.59;20775603;28;20619;-65
2023/03/03 02:52:21;;;;;;;70.97;29.10;;;;;;;-1.09;100.00;100629.72;20775942;28;20058;-66
2023/03/03 03:02:22;;;;;;;75.55;31.02;;;;;;;-1.22;100.00;100643.81;20774969;28;20104;-66
2023/03/03 03:12:23;;;;;;;72.40;29.25;;;;;;;-1.17;100.00;100642.28;20777715;28;20107;-67
2023/03/03 03:22:25;;;;;;;73.20;29.23;;;;;;;-1.33;100.00;100645.13;20774690;28;20054;-66
2023/03/03 03:32:26;;;;;;;76.60;29.55;;;;;;;-1.41;100.00;100649.97;20777335;28;20105;-65
2023/03/03 03:42:27;;;;;;;64.10;25.90;;;;;;;-1.39;100.00;100653.50;20774263;28;20065;-65
2023/03/03 03:52:29;;;;;;;58.25;25.77;;;;;;;-1.37;100.00;100656.97;20770795;28;20053;-65
2023/03/03 04:02:30;;;;;;;67.13;27.98;;;;;;;-1.44;100.00;100667.84;20770688;28;20056;-65
2023/03/03 04:12:37;;;;;;;63.20;26.20;;;;;;;-1.53;100.00;100667.53;20770141;28;20110;-65
2023/03/03 04:22:38;;;;;;;67.75;25.40;;;;;;;-1.57;100.00;100670.78;20767849;28;20505;-65
2023/03/03 04:32:39;;;;;;;63.53;26.15;;;;;;;-1.67;100.00;100669.56;20769922;28;20061;-65
2023/03/03 04:42:41;;;;;;;54.08;22.42;;;;;;;-1.66;100.00;100670.44;20771338;28;20068;-65
2023/03/03 04:52:42;;;;;;;56.00;22.42;;;;;;;-1.81;100.00;100671.59;20774216;28;20053;-66
2023/03/03 05:02:43;;;;;;;54.38;23.35;;;;;;;-1.81;100.00;100675.88;20766148;28;20516;-66
2023/03/03 05:12:44;;;;;;;53.28;23.10;;;;;;;-1.94;100.00;100684.78;20765996;28;20107;-65
2023/03/03 05:22:46;;;;;;;63.30;25.48;;;;;;;-1.95;100.00;100703.56;20765295;28;20137;-65
2023/03/03 05:32:47;;;;;;;62.45;26.35;;;;;;;-2.04;100.00;100718.59;20764452;28;20516;-66
2023/03/03 05:42:48;;;;;;;48.83;21.80;;;;;;;-2.09;100.00;100714.97;20766520;28;20116;-66
2023/03/03 05:52:50;;;;;;;51.53;19.90;;;;;;;-2.24;100.00;100727.19;20764597;28;20057;-68
2023/03/03 06:02:54;;;;;;;43.97;18.17;;;;;;;-2.26;100.00;100739.03;20765639;28;20061;-68
2023/03/03 06:12:55;;;;;;;50.42;21.38;;;;;;;-2.24;100.00;100747.69;20767715;28;20045;-66
2023/03/03 06:22:56;;;;;;;43.80;19.20;;;;;;;-2.21;100.00;100761.50;20759509;28;20212;-68
2023/03/03 06:32:58;;;;;;;48.95;21.23;;;;;;;-2.08;100.00;100762.88;20773474;28;20057;-68
2023/03/03 06:43:01;;;;;;;45.92;20.65;;;;;;;-1.85;100.00;100772.41;20772308;28;20058;-67
2023/03/03 06:53:02;;;;;;;49.50;23.57;;;;;;;-1.43;100.00;100780.03;20777399;28;20042;-67
2023/03/03 07:03:04;;;;;;;58.22;26.42;;;;;;;-1.01;100.00;100771.31;20776637;28;20054;-67
2023/03/03 07:13:05;;;;;;;58.55;26.65;;;;;;;-0.73;100.00;100780.91;20777766;28;20100;-67
2023/03/03 07:23:07;;;;;;;57.13;26.75;;;;;;;-0.52;100.00;100794.53;20779236;28;20546;-67
2023/03/03 07:33:08;;;;;;;62.88;27.63;;;;;;;-0.28;100.00;100795.38;20759007;28;20057;-68
2023/03/03 07:43:09;;;;;;;57.25;26.95;;;;;;;0.02;100.00;100809.22;20774388;28;20058;-68
2023/03/03 07:53:11;;;;;;;57.70;26.30;;;;;;;0.33;100.00;100832.56;20778797;23;20081;-84
2023/03/03 08:03:13;;;;;;;55.75;26.73;;;;;;;0.54;100.00;100827.25;20754001;28;20450;-85
2023/03/03 08:13:14;;;;;;;51.45;25.90;;;;;;;0.60;100.00;100832.59;20762948;28;20054;-83
2023/03/03 08:23:15;;;;;;;60.38;28.73;;;;;;;1.02;100.00;100829.56;20763186;28;20058;-84
2023/03/03 08:33:17;;;;;;;58.10;28.88;;;;;;;1.35;100.00;100823.66;20754285;28;20153;-85
2023/03/03 08:43:20;;;;;;;55.53;27.67;;;;;;;1.73;100.00;100835.03;20767056;28;20076;-85
2023/03/03 08:53:21;;;;;;;61.53;27.60;;;;;;;2.07;100.00;100830.75;20755327;28;20049;-83
2023/03/03 09:03:23;;;;;;;53.67;27.55;;;;;;;2.44;100.00;100850.59;20759190;28;20534;-84
2023/03/03 09:13:24;;;;;;;54.70;27.25;;;;;;;2.80;100.00;100843.72;20764288;28;20054;-84
2023/03/03 09:23:25;;;;;;;49.05;24.75;;;;;;;3.17;100.00;100852.31;20760526;28;20053;-83
2023/03/03 09:33:26;;;;;;;52.72;25.67;;;;;;;3.49;100.00;100857.25;20757370;28;20395;-84
2023/03/03 09:43:28;;;;;;;54.35;26.67;;;;;;;3.73;100.00;100852.56;20765655;28;20442;-83
2023/03/03 09:53:29;;;;;;;48.00;24.35;;;;;;;3.88;100.00;100870.16;20771182;28;20104;-82
2023/03/03 10:03:31;;;;;;;53.90;25.35;;;;;;;4.38;100.00;100863.25;20771511;28;20474;-85
2023/03/03 10:13:33;;;;;;;45.60;23.67;;;;;;;4.41;100.00;100870.22;20780850;28;20061;-84
2023/03/03 10:23:34;;;;;;;49.65;24.75;;;;;;;4.74;100.00;100869.88;20773665;28;20050;-83
2023/03/03 10:33:36;;;;;;;48.22;23.70;;;;;;;4.94;100.00;100864.13;20767543;28;20117;-85
2023/03/03 10:43:37;;;;;;;51.13;23.90;;;;;;;5.04;100.00;100860.81;20767619;28;20050;-84
2023/03/03 10:53:39;;;;;;;45.88;23.35;;;;;;;5.49;100.00;100867.47;20759985;28;20725;-84
2023/03/03 11:03:40;;;;;;;46.10;24.25;;;;;;;5.60;100.00;100871.06;20760475;28;20057;-84
2023/03/03 11:13:43;;;;;;;45.95;23.45;;;;;;;6.06;100.00;100882.88;20771705;28;20054;-84
2023/03/03 11:23:54;;;;;;;;;;;;;;;;;;;;;
2023/03/03 11:33:57;;;;;;;55.95;24.75;;;;;;;6.43;100.00;100842.50;20752397;28;20137;-82
2023/03/03 11:43:59;;;;;;;48.00;23.60;;;;;;;6.55;100.00;100833.91;20753939;28;20368;-83
2023/03/03 11:54:00;;;;;;;44.67;23.35;;;;;;;6.56;100.00;100826.97;20751292;28;20120;-83
2023/03/03 12:04:02;;;;;;;48.78;25.17;;;;;;;6.72;100.00;100826.22;20750809;28;20045;-84
2023/03/03 12:14:03;;;;;;;45.83;23.23;;;;;;;6.91;98.71;100820.28;20746765;28;20068;-84
2023/03/03 12:24:05;;;;;;;43.55;23.55;;;;;;;7.33;96.43;100803.13;20742599;28;20049;-83
2023/03/03 12:34:06;;;;;;;52.10;25.95;;;;;;;7.44;94.60;100796.22;20766747;28;20052;-85
2023/03/03 12:44:11;;;;;;;;;;;;;;;7.36;96.86;100792.69;20756439;28;20042;-85
2023/03/03 12:54:13;;;;;;;54.00;26.23;;;;;;;7.46;97.98;100791.88;20758235;28;19929;-86
2023/03/03 13:04:14;;;;;;;45.53;24.38;;;;;;;7.58;98.19;100782.38;20810718;28;20054;-83
2023/03/03 13:14:15;;;;;;;50.80;26.20;;;;;;;7.67;94.23;100785.00;20745611;28;20057;-83
2023/03/03 13:24:17;;;;;;;47.05;25.55;;;;;;;7.80;94.26;100773.69;20752286;28;20081;-85
2023/03/03 13:34:18;;;;;;;51.05;25.13;;;;;;;8.00;92.30;100765.94;20753809;28;20062;-83
2023/03/03 13:44:21;;;;;;;48.10;24.15;;;;;;;8.02;90.76;100763.31;20767691;28;20049;-84
2023/03/03 13:54:23;;;;;;;52.53;25.50;;;;;;;8.17;90.09;100758.09;20765754;28;20591;-83
2023/03/03 14:04:25;;;;;;;47.97;25.67;;;;;;;8.01;90.82;100736.38;20769061;28;20038;-85
2023/03/03 14:14:27;;;;;;;48.75;25.25;;;;;;;8.40;80.53;100738.09;20844171;28;20450;-83
2023/03/03 14:35:06;;;;;;;48.20;25.52;;;;;;;8.46;75.55;100730.25;20890395;28;20041;-85
2023/03/03 14:45:09;;;;;;;48.13;24.00;;;;;;;8.40;76.73;100725.06;20834445;28;20041;-86
2023/03/03 14:55:29;;;;;;;46.42;23.85;;;;;;;8.37;75.96;100719.84;20854685;28;20053;-85
2023/03/03 15:05:30;;;;;;;44.78;23.73;;;;;;;8.44;75.19;100708.53;20832365;28;20064;-85
2023/03/03 15:15:32;;;;;;;47.25;23.60;;;;;;;8.50;76.03;100699.81;20846373;28;20124;-86
2023/03/03 15:25:33;;;;;;;44.92;22.88;;;;;;;8.20;76.70;100700.72;20879584;28;20064;-86
2023/03/03 15:35:44;;;;;;;47.58;22.60;;;;;;;8.46;75.44;100701.56;20821772;28;20053;-87
2023/03/03 15:45:51;;;;;;;39.92;22.88;;;;;;;8.37;75.97;100704.19;20858849;28;20053;-85
2023/03/03 15:56:16;;;;;;;56.90;24.52;;;;;;;8.26;75.22;100697.22;20842985;28;20554;-83
2023/03/03 16:06:18;;;;;;;41.42;22.25;;;;;;;8.24;74.39;100707.69;20829984;28;20049;-83
2023/03/03 16:16:20;;;;;;;42.22;21.33;;;;;;;8.17;74.23;100705.94;20827400;28;20045;-81
2023/03/03 16:26:21;;;;;;;44.85;22.88;;;;;;;8.06;74.48;100729.41;20845514;28;20052;-84
2023/03/03 16:36:22;;;;;;;49.63;24.55;;;;;;;7.88;74.49;100729.41;20841755;28;20046;-84
2023/03/03 16:46:24;;;;;;;53.10;27.25;;;;;;;7.61;74.41;100738.91;20850982;28;20037;-82
2023/03/03 16:56:25;;;;;;;53.45;25.60;;;;;;;7.23;77.74;100746.63;20847277;28;20057;-83
2023/03/03 17:06:26;;;;;;;42.28;20.38;;;;;;;7.08;75.70;100772.63;20838756;28;20055;-81
2023/03/03 17:16:28;;;;;;;39.83;19.10;;;;;;;6.83;76.10;100785.50;20843657;28;20060;-84
2023/03/03 17:26:56;;;;;;;37.65;20.42;;;;;;;6.57;77.41;100793.16;20853312;28;20061;-84
2023/03/03 17:37:04;;;;;;;39.58;18.05;;;;;;;6.27;79.02;100804.19;20864478;28;20072;-83
2023/03/03 17:47:05;;;;;;;34.75;17.38;;;;;;;6.06;79.45;100819.63;20845934;28;20053;-83
2023/03/03 17:57:07;;;;;;;35.58;16.08;;;;;;;5.86;80.47;100833.25;20858654;28;20819;-82
2023/03/03 18:07:09;;;;;;;34.47;15.70;;;;;;;5.72;81.65;100833.97;20847770;28;20166;-82
2023/03/03 18:17:10;;;;;;;33.35;16.17;;;;;;;5.73;80.85;100846.97;20832870;28;20054;-82
2023/03/03 18:27:15;;;;;;;32.78;15.48;;;;;;;5.58;82.17;100852.00;20921554;28;20073;-84
2023/03/03 18:37:27;;;;;;;35.35;15.38;;;;;;;5.31;83.79;100868.97;20884447;28;20054;-81
2023/03/03 18:47:28;;;;;;;36.05;17.92;;;;;;;5.13;85.59;100866.13;20893839;28;20045;-83
2023/03/03 18:57:29;;;;;;;36.85;16.70;;;;;;;4.91;87.17;100871.84;20862603;28;20057;-83
2023/03/03 19:07:31;;;;;;;31.50;14.27;;;;;;;4.58;90.43;100884.31;20852136;28;20513;-84
2023/03/03 19:17:32;;;;;;;32.25;15.35;;;;;;;4.31;91.76;100892.53;20860361;28;20140;-83
2023/03/03 19:27:34;;;;;;;33.33;14.45;;;;;;;3.99;95.22;100891.06;20850843;28;20053;-84
2023/03/03 19:37:35;;;;;;;39.08;16.98;;;;;;;3.71;97.55;100905.19;20827816;28;20049;-83
2023/03/03 19:47:36;;;;;;;38.45;18.95;;;;;;;3.71;98.38;100902.59;20842336;28;20482;-83
2023/03/03 19:57:38;;;;;;;37.90;17.50;;;;;;;3.79;97.43;100914.88;20838387;28;20049;-83
2023/03/03 20:07:39;;;;;;;33.70;15.82;;;;;;;3.85;95.86;100914.97;20834179;28;20050;-84
2023/03/03 20:17:40;;;;;;;36.22;16.85;;;;;;;4.03;96.02;100930.00;20840590;28;20057;-83
2023/03/03 20:27:44;;;;;;;38.28;17.45;;;;;;;3.99;97.48;100938.56;20847195;28;20259;-83
2023/03/03 20:37:45;;;;;;;39.93;18.50;;;;;;;3.84;99.28;100939.13;20857654;28;20081;-82
2023/03/03 20:47:47;;;;;;;41.90;20.30;;;;;;;3.72;100.00;100948.38;20853660;28;20110;-84
2023/03/03 20:57:48;;;;;;;40.70;18.40;;;;;;;3.60;100.00;100944.69;20820808;28;20494;-84
2023/03/03 21:07:50;;;;;;;37.17;17.20;;;;;;;3.47;100.00;100953.03;20832614;28;20522;-84
2023/03/03 21:17:53;;;;;;;39.08;17.60;;;;;;;3.31;100.00;100959.59;20829786;28;20096;-82
2023/03/03 21:27:55;;;;;;;41.10;18.17;;;;;;;3.24;100.00;100975.78;20845882;28;20050;-82
2023/03/03 21:37:56;;;;;;;35.65;17.45;;;;;;;2.95;100.00;100977.69;20828705;28;20489;-82
2023/03/03 21:47:57;;;;;;;41.40;18.50;;;;;;;2.92;100.00;100981.91;20823646;28;20045;-83
2023/03/03 21:58:02;;;;;;;37.83;17.75;;;;;;;2.73;100.00;100985.75;20839802;28;20057;-81
2023/03/03 22:08:03;;;;;;;38.92;17.42;;;;;;;2.61;100.00;100981.16;20838697;28;20049;-82
2023/03/03 22:18:05;;;;;;;42.00;17.58;;;;;;;2.49;100.00;100980.81;20875637;28;20049;-81
2023/03/03 22:28:06;;;;;;;42.92;18.33;;;;;;;2.42;100.00;100979.78;20839155;28;20131;-82
2023/03/03 22:38:07;;;;;;;43.58;19.35;;;;;;;2.26;100.00;100986.25;20847050;28;20471;-82
2023/03/03 22:48:09;;;;;;;41.78;18.60;;;;;;;2.18;100.00;100992.91;20847516;28;20076;-82
2023/03/03 22:58:10;;;;;;;43.90;19.88;;;;;;;2.01;100.00;100999.31;20861955;28;20057;-81
2023/03/03 23:08:11;;;;;;;46.17;20.63;;;;;;;1.84;100.00;101009.16;20867124;28;20077;-82
2023/03/03 23:18:12;;;;;;;48.17;20.88;;;;;;;1.72;100.00;101009.66;20812747;28;20049;-82
2023/03/03 23:28:14;;;;;;;58.05;22.98;;;;;;;1.66;100.00;101016.34;20828211;28;20435;-82
2023/03/03 23:38:16;;;;;;;63.80;25.48;;;;;;;1.56;100.00;101017.78;20906496;28;20130;-83
2023/03/03 23:48:19;;;;;;;62.65;25.20;;;;;;;1.52;100.00;101021.97;20874381;28;20092;-82
2023/03/03 23:58:20;;;;;;;65.63;27.25;;;;;;;1.39;100.00;101031.84;20846644;28;20589;-81
